Time;durP1;ratioP1;P1;durP2;ratioP2;P2;SDS_P1;SDS_P2;PMS_P1;PMS_P2;Temp;Humidity;BMP_temperature;BMP_pressure;BME280_temperature;BME280_humidity;BME280_pressure;Samples;Min_cycle;Max_cycle;Signal;HPM_P1;HPM_P2
2024/01/03 00:00:25;;;;;;;2.28;0.50;;;9.10;99.90;;;;;;5041372;28;20025;-88
2024/01/03 00:02:51;;;;;;;0.40;0.40;;;9.10;99.90;;;;;;5045357;28;20067;-87
2024/01/03 00:05:25;;;;;;;2.78;0.68;;;9.10;99.90;;;;;;5038160;28;20020;-88
2024/01/03 00:07:51;;;;;;;0.40;0.40;;;9.10;99.90;;;;;;5039049;28;20029;-87
2024/01/03 00:10:42;;;;;;;0.52;0.40;;;9.10;99.90;;;;;;5039756;28;20044;-88
2024/01/03 00:13:44;;;;;;;0.55;0.50;;;9.10;99.90;;;;;;5045208;28;20029;-88
2024/01/03 00:16:21;;;;;;;0.80;0.55;;;9.10;99.90;;;;;;5040947;28;20025;-88
2024/01/03 00:18:58;;;;;;;0.40;0.40;;;9.10;99.90;;;;;;5039574;28;20021;-88
2024/01/03 00:21:26;;;;;;;0.60;0.60;;;9.10;99.90;;;;;;5042816;28;20037;-88
2024/01/03 00:23:56;;;;;;;0.40;0.40;;;9.10;99.90;;;;;;5048517;28;20029;-87
2024/01/03 00:26:29;;;;;;;0.65;0.40;;;9.10;99.90;;;;;;5042914;28;20021;-86
2024/01/03 00:28:56;;;;;;;0.55;0.55;;;9.10;99.90;;;;;;5039930;28;20029;-87
2024/01/03 00:31:41;;;;;;;0.50;0.50;;;9.10;99.90;;;;;;5047315;28;20518;-88
2024/01/03 00:34:22;;;;;;;0.40;0.40;;;9.10;99.90;;;;;;5039481;28;20406;-87
2024/01/03 00:36:48;;;;;;;0.40;0.40;;;9.10;99.90;;;;;;5040461;28;20021;-88
2024/01/03 00:39:15;;;;;;;0.50;0.50;;;9.10;99.90;;;;;;5036251;28;20024;-87
2024/01/03 00:41:40;;;;;;;1.17;0.50;;;9.10;99.90;;;;;;5042314;28;20018;-87
2024/01/03 00:44:06;;;;;;;2.28;0.40;;;9.10;99.90;;;;;;5044461;28;20074;-87
2024/01/03 00:46:32;;;;;;;0.95;0.52;;;9.10;99.90;;;;;;5039706;28;20021;-88
2024/01/03 00:48:58;;;;;;;0.70;0.60;;;9.10;99.90;;;;;;5041667;28;20025;-87
2024/01/03 00:51:24;;;;;;;0.45;0.45;;;9.10;99.90;;;;;;5043705;28;20017;-87
2024/01/03 00:53:49;;;;;;;0.30;0.30;;;9.10;99.90;;;;;;5036221;28;20048;-88
2024/01/03 00:56:15;;;;;;;0.40;0.40;;;9.10;99.90;;;;;;5043613;28;20502;-87
2024/01/03 00:58:41;;;;;;;0.50;0.50;;;9.10;99.90;;;;;;5040681;28;20518;-89
2024/01/03 01:01:07;;;;;;;0.40;0.40;;;9.10;99.90;;;;;;5039592;28;20498;-87
2024/01/03 01:03:33;;;;;;;0.50;0.50;;;9.10;99.90;;;;;;5035344;28;20521;-89
2024/01/03 01:05:58;;;;;;;3.60;0.57;;;9.10;99.90;;;;;;5038111;28;20108;-89
2024/01/03 01:08:24;;;;;;;2.15;0.60;;;9.10;99.90;;;;;;5040506;28;20426;-87
2024/01/03 01:10:49;;;;;;;0.38;0.38;;;9.10;99.90;;;;;;5038964;28;20028;-88
2024/01/03 01:13:15;;;;;;;0.40;0.40;;;9.10;99.90;;;;;;5045443;28;20060;-88
2024/01/03 01:15:40;;;;;;;0.40;0.40;;;9.10;99.90;;;;;;5040435;28;20067;-88
2024/01/03 01:18:06;;;;;;;0.63;0.60;;;9.10;99.90;;;;;;5043092;28;20026;-88
2024/01/03 01:20:31;;;;;;;3.15;0.50;;;9.10;99.90;;;;;;5039872;28;20020;-88
2024/01/03 01:22:57;;;;;;;1.35;0.70;;;9.10;99.90;;;;;;5045940;28;20021;-87
2024/01/03 01:25:23;;;;;;;0.50;0.50;;;9.10;99.90;;;;;;5046862;28;20059;-88
2024/01/03 01:27:48;;;;;;;1.45;0.60;;;9.10;99.90;;;;;;5046071;28;20026;-88
2024/01/03 01:30:14;;;;;;;0.43;0.43;;;9.10;99.90;;;;;;5038882;28;20048;-89
2024/01/03 01:32:39;;;;;;;0.50;0.50;;;9.10;99.90;;;;;;5048948;28;20035;-88
2024/01/03 01:35:05;;;;;;;0.45;0.45;;;9.10;99.90;;;;;;5046042;28;20086;-88
2024/01/03 01:37:31;;;;;;;0.50;0.50;;;9.10;99.90;;;;;;5045600;28;20471;-89
2024/01/03 01:39:56;;;;;;;0.40;0.40;;;9.10;99.90;;;;;;5044712;28;20025;-88
2024/01/03 01:42:22;;;;;;;0.40;0.40;;;9.10;99.90;;;;;;5044494;28;20589;-88
2024/01/03 01:44:48;;;;;;;0.88;0.45;;;9.10;99.90;;;;;;5046866;28;20021;-88
2024/01/03 01:47:14;;;;;;;0.90;0.65;;;9.10;99.90;;;;;;5046329;28;20449;-88
2024/01/03 01:49:40;;;;;;;0.35;0.35;;;9.10;99.90;;;;;;5043463;28;20421;-88
2024/01/03 01:52:17;;;;;;;0.57;0.57;;;9.10;99.90;;;;;;5042454;28;20080;-88
2024/01/03 01:54:42;;;;;;;0.77;0.50;;;9.10;99.90;;;;;;5041923;28;20533;-89
2024/01/03 01:57:10;;;;;;;0.45;0.45;;;9.10;99.90;;;;;;5039556;28;20029;-89
2024/01/03 01:59:36;;;;;;;0.60;0.60;;;9.10;99.90;;;;;;5046854;28;20036;-88
2024/01/03 02:02:04;;;;;;;4.40;1.35;;;9.10;99.90;;;;;;5048786;28;20029;-88
2024/01/03 02:04:32;;;;;;;0.40;0.40;;;9.10;99.90;;;;;;5038998;28;20029;-88
2024/01/03 02:06:57;;;;;;;0.50;0.50;;;9.10;99.90;;;;;;5047481;28;20040;-89
2024/01/03 02:09:23;;;;;;;0.40;0.40;;;9.10;99.90;;;;;;5046560;28;20029;-88
2024/01/03 02:11:48;;;;;;;0.52;0.43;;;9.10;99.90;;;;;;5040202;28;20018;-88
2024/01/03 02:14:14;;;;;;;0.70;0.60;;;9.10;99.90;;;;;;5042244;28;20025;-88
2024/01/03 02:16:39;;;;;;;0.52;0.52;;;9.20;99.90;;;;;;5042298;28;20431;-88
2024/01/03 02:19:05;;;;;;;0.73;0.50;;;9.10;99.90;;;;;;5044003;28;20023;-88
2024/01/03 02:21:31;;;;;;;0.50;0.50;;;9.10;99.90;;;;;;5042054;28;20025;-87
2024/01/03 02:23:56;;;;;;;0.40;0.40;;;9.10;99.90;;;;;;5041305;28;20086;-88
2024/01/03 02:26:22;;;;;;;0.70;0.70;;;9.10;99.90;;;;;;5043274;28;20214;-89
2024/01/03 02:28:47;;;;;;;0.45;0.45;;;9.10;99.90;;;;;;5041713;28;20029;-88
2024/01/03 02:31:13;;;;;;;0.40;0.40;;;9.10;99.90;;;;;;5036224;28;20056;-87
2024/01/03 02:33:39;;;;;;;0.40;0.40;;;9.10;99.90;;;;;;5044150;28;20124;-89
2024/01/03 02:36:05;;;;;;;1.92;0.60;;;9.10;99.90;;;;;;5039463;28;20022;-88
2024/01/03 02:38:30;;;;;;;0.50;0.50;;;9.10;99.90;;;;;;5048156;28;20020;-89
2024/01/03 02:40:56;;;;;;;0.43;0.43;;;9.10;99.90;;;;;;5039859;28;20026;-89
2024/01/03 02:43:21;;;;;;;0.52;0.52;;;9.10;99.90;;;;;;5037664;28;20030;-86
2024/01/03 02:45:47;;;;;;;1.30;0.60;;;9.10;99.90;;;;;;5039239;28;20104;-88
2024/01/03 02:48:12;;;;;;;0.40;0.40;;;9.10;99.90;;;;;;5044290;28;20497;-88
2024/01/03 02:50:43;;;;;;;1.00;0.70;;;9.10;99.90;;;;;;5044023;28;20113;-87
2024/01/03 02:53:09;;;;;;;0.95;0.77;;;9.10;99.90;;;;;;5034686;28;20029;-89
2024/01/03 02:55:35;;;;;;;0.68;0.68;;;9.10;99.90;;;;;;5044107;28;20031;-88
2024/01/03 02:58:00;;;;;;;0.60;0.60;;;9.10;99.90;;;;;;5046769;28;20056;-88
2024/01/03 03:00:26;;;;;;;0.50;0.50;;;9.10;99.90;;;;;;5047103;28;20028;-88
2024/01/03 03:02:51;;;;;;;0.55;0.50;;;9.10;99.90;;;;;;5044269;28;20021;-89
2024/01/03 03:05:17;;;;;;;0.50;0.50;;;9.10;99.90;;;;;;5039271;28;20052;-88
2024/01/03 03:07:42;;;;;;;0.52;0.50;;;9.10;99.90;;;;;;5041429;28;20402;-88
2024/01/03 03:10:11;;;;;;;1.58;0.50;;;9.10;99.90;;;;;;5038706;28;20025;-88
2024/01/03 03:12:37;;;;;;;1.48;0.57;;;9.10;99.90;;;;;;5039131;28;20059;-89
2024/01/03 03:15:07;;;;;;;0.65;0.50;;;9.10;99.90;;;;;;5040983;28;20057;-88
2024/01/03 03:17:32;;;;;;;0.60;0.60;;;9.10;99.90;;;;;;5040330;28;20017;-89
2024/01/03 03:19:58;;;;;;;0.50;0.50;;;9.10;99.90;;;;;;5041963;28;20562;-89
2024/01/03 03:22:23;;;;;;;0.57;0.52;;;9.10;99.90;;;;;;5041785;28;20025;-87
2024/01/03 03:24:49;;;;;;;1.05;0.55;;;9.10;99.90;;;;;;5042568;28;20774;-88
2024/01/03 03:27:14;;;;;;;1.58;0.70;;;9.10;99.90;;;;;;5038447;28;20575;-88
2024/01/03 03:29:40;;;;;;;0.82;0.50;;;9.10;99.90;;;;;;5047391;28;20502;-88
2024/01/03 03:32:07;;;;;;;0.63;0.50;;;9.10;99.90;;;;;;5037755;28;20514;-88
2024/01/03 03:34:33;;;;;;;0.50;0.50;;;9.10;99.90;;;;;;5042527;28;20021;-89
2024/01/03 03:36:58;;;;;;;1.58;0.50;;;9.10;99.90;;;;;;5042152;28;20025;-88
2024/01/03 03:39:24;;;;;;;0.40;0.40;;;9.10;99.90;;;;;;5041496;28;20028;-87
2024/01/03 03:41:49;;;;;;;0.85;0.70;;;9.10;99.90;;;;;;5040683;28;20052;-88
2024/01/03 03:44:15;;;;;;;0.50;0.50;;;9.10;99.90;;;;;;5048646;28;20013;-88
2024/01/03 03:46:40;;;;;;;0.60;0.50;;;9.10;99.90;;;;;;5043985;28;20021;-87
2024/01/03 03:49:06;;;;;;;1.67;0.50;;;9.10;99.90;;;;;;5039092;28;20029;-88
2024/01/03 03:51:31;;;;;;;0.50;0.50;;;9.10;99.90;;;;;;5042039;28;20025;-88
2024/01/03 03:53:57;;;;;;;0.65;0.60;;;9.10;99.90;;;;;;5041186;28;20047;-87
2024/01/03 03:56:28;;;;;;;0.40;0.40;;;9.10;99.90;;;;;;5037966;28;20541;-88
2024/01/03 03:58:55;;;;;;;0.40;0.40;;;9.10;99.90;;;;;;5040556;28;20033;-87
2024/01/03 04:01:20;;;;;;;0.98;0.57;;;9.10;99.90;;;;;;5031271;28;20027;-88
2024/01/03 04:03:46;;;;;;;0.73;0.50;;;9.10;99.90;;;;;;5035678;28;20063;-88
2024/01/03 04:06:15;;;;;;;0.52;0.52;;;9.10;99.90;;;;;;5042049;28;20386;-87
2024/01/03 04:08:45;;;;;;;0.52;0.52;;;9.10;99.90;;;;;;5038490;28;20018;-87
2024/01/03 04:11:11;;;;;;;0.45;0.45;;;9.10;99.90;;;;;;5036540;28;20017;-87
2024/01/03 04:13:38;;;;;;;0.50;0.50;;;9.10;99.90;;;;;;5037990;28;20021;-87
2024/01/03 04:16:08;;;;;;;0.50;0.50;;;9.10;99.90;;;;;;5038916;28;20028;-87
2024/01/03 04:18:34;;;;;;;0.40;0.40;;;9.10;99.90;;;;;;5042370;28;20021;-88
2024/01/03 04:21:05;;;;;;;0.52;0.52;;;9.10;99.90;;;;;;5048110;28;20027;-88
2024/01/03 04:23:31;;;;;;;0.70;0.70;;;9.10;99.90;;;;;;5037209;28;20112;-88
2024/01/03 04:25:57;;;;;;;0.50;0.50;;;9.10;99.90;;;;;;5046383;28;20029;-88
2024/01/03 04:28:23;;;;;;;5.68;0.80;;;9.10;99.90;;;;;;5045794;28;20078;-88
2024/01/03 04:30:48;;;;;;;1.38;0.57;;;9.10;99.90;;;;;;5037914;28;20037;-87
2024/01/03 04:33:14;;;;;;;0.63;0.60;;;9.10;99.90;;;;;;5036906;28;20017;-87
2024/01/03 04:35:39;;;;;;;1.42;0.85;;;9.10;99.90;;;;;;5040691;28;20025;-88
2024/01/03 04:38:05;;;;;;;0.60;0.60;;;9.10;99.90;;;;;;5035451;28;20032;-88
2024/01/03 04:40:32;;;;;;;0.55;0.55;;;9.10;99.90;;;;;;5038740;28;20037;-87
2024/01/03 04:42:58;;;;;;;1.02;0.95;;;9.10;99.90;;;;;;5039271;28;20079;-87
2024/01/03 04:45:23;;;;;;;0.68;0.63;;;9.10;99.90;;;;;;5035139;28;20021;-88
2024/01/03 04:47:49;;;;;;;0.60;0.60;;;9.10;99.90;;;;;;5038444;28;20091;-87
2024/01/03 04:50:14;;;;;;;0.60;0.60;;;9.10;99.90;;;;;;5036544;28;20025;-88
2024/01/03 04:52:40;;;;;;;0.50;0.50;;;9.10;99.90;;;;;;5038748;28;20383;-88
2024/01/03 04:55:06;;;;;;;0.60;0.60;;;9.10;99.90;;;;;;5037021;28;20040;-88
2024/01/03 04:57:35;;;;;;;0.65;0.65;;;9.10;99.90;;;;;;5047590;28;20048;-88
2024/01/03 05:00:01;;;;;;;0.60;0.60;;;9.10;99.90;;;;;;5041737;28;20029;-89
2024/01/03 05:02:26;;;;;;;0.60;0.60;;;9.10;99.90;;;;;;5038884;28;20032;-87
2024/01/03 05:04:52;;;;;;;0.73;0.60;;;9.10;99.90;;;;;;5044603;28;20028;-87
2024/01/03 05:07:18;;;;;;;1.90;0.68;;;9.10;99.90;;;;;;5042020;28;20487;-88
2024/01/03 05:09:44;;;;;;;0.60;0.60;;;9.10;99.90;;;;;;5045670;28;20434;-88
2024/01/03 05:12:10;;;;;;;0.90;0.60;;;9.10;99.90;;;;;;5042218;28;20083;-88
2024/01/03 05:14:36;;;;;;;2.47;0.50;;;9.10;99.90;;;;;;5042841;28;20031;-88
2024/01/03 05:17:01;;;;;;;0.70;0.60;;;9.10;99.90;;;;;;5039204;28;20414;-87
2024/01/03 05:19:27;;;;;;;0.88;0.73;;;9.10;99.90;;;;;;5042626;28;20078;-88
2024/01/03 05:21:52;;;;;;;2.25;0.70;;;9.10;99.90;;;;;;5043461;28;20467;-87
2024/01/03 05:24:19;;;;;;;1.73;0.70;;;9.10;99.90;;;;;;5049746;28;20068;-87
2024/01/03 05:26:45;;;;;;;3.08;0.70;;;9.10;99.90;;;;;;5043550;28;20053;-88
2024/01/03 05:29:11;;;;;;;0.63;0.63;;;9.10;99.90;;;;;;5044451;28;20103;-88
2024/01/03 05:31:36;;;;;;;0.50;0.50;;;9.10;99.90;;;;;;5042505;28;20059;-89
2024/01/03 05:34:02;;;;;;;0.50;0.50;;;9.10;99.90;;;;;;5039504;28;20505;-88
2024/01/03 05:36:27;;;;;;;0.63;0.63;;;9.10;99.90;;;;;;5049616;28;20048;-88
2024/01/03 05:38:53;;;;;;;3.05;0.68;;;9.10;99.90;;;;;;5044965;28;20029;-88
2024/01/03 05:41:18;;;;;;;0.60;0.60;;;9.10;99.90;;;;;;5040595;28;20118;-88
2024/01/03 05:43:44;;;;;;;1.15;0.70;;;9.10;99.90;;;;;;5041726;28;20078;-87
2024/01/03 05:46:10;;;;;;;0.57;0.50;;;9.10;99.90;;;;;;5041708;28;20041;-88
2024/01/03 05:48:36;;;;;;;0.60;0.60;;;9.10;99.90;;;;;;5044010;28;20049;-87
2024/01/03 05:51:02;;;;;;;1.33;0.75;;;9.10;99.90;;;;;;5043295;28;20021;-88
2024/01/03 05:53:28;;;;;;;0.52;0.52;;;9.10;99.90;;;;;;5044138;28;20567;-87
2024/01/03 05:55:53;;;;;;;0.45;0.40;;;9.10;99.90;;;;;;5042203;28;20036;-88
2024/01/03 05:58:19;;;;;;;0.50;0.50;;;9.10;99.90;;;;;;5039355;28;20037;-88
2024/01/03 06:00:44;;;;;;;0.57;0.55;;;9.10;99.90;;;;;;5044303;28;20017;-88
2024/01/03 06:03:10;;;;;;;0.75;0.50;;;9.10;99.90;;;;;;5038116;28;20032;-88
2024/01/03 06:05:35;;;;;;;0.60;0.60;;;9.10;99.90;;;;;;5042886;28;20422;-88
2024/01/03 06:08:01;;;;;;;0.50;0.50;;;9.10;99.90;;;;;;5042076;28;20021;-88
2024/01/03 06:10:26;;;;;;;0.50;0.50;;;9.10;99.90;;;;;;5036404;28;20020;-88
2024/01/03 06:12:52;;;;;;;0.90;0.52;;;9.10;99.90;;;;;;5041253;28;20032;-88
2024/01/03 06:15:17;;;;;;;0.65;0.65;;;9.10;99.90;;;;;;5036185;28;20475;-89
2024/01/03 06:17:43;;;;;;;1.77;0.75;;;9.10;99.90;;;;;;5039109;28;20024;-89
2024/01/03 06:20:09;;;;;;;0.80;0.50;;;9.10;99.90;;;;;;5039730;28;20028;-88
2024/01/03 06:22:34;;;;;;;0.60;0.60;;;9.10;99.90;;;;;;5042517;28;20032;-89
2024/01/03 06:25:00;;;;;;;0.70;0.70;;;9.10;99.90;;;;;;5043815;28;20021;-88
2024/01/03 06:27:25;;;;;;;0.60;0.60;;;9.10;99.90;;;;;;5034568;28;20025;-87
2024/01/03 06:29:51;;;;;;;0.88;0.70;;;9.10;99.90;;;;;;5049545;28;20091;-88
2024/01/03 06:32:16;;;;;;;1.10;0.70;;;9.10;99.90;;;;;;5043816;28;20071;-88
2024/01/03 06:34:42;;;;;;;1.60;0.60;;;9.10;99.90;;;;;;5041449;28;20017;-87
2024/01/03 06:37:07;;;;;;;0.55;0.55;;;9.10;99.90;;;;;;5040238;28;20018;-87
2024/01/03 06:39:33;;;;;;;0.50;0.50;;;9.10;99.90;;;;;;5043886;28;20021;-89
2024/01/03 06:41:59;;;;;;;0.50;0.50;;;9.10;99.90;;;;;;5045383;28;20032;-87
2024/01/03 06:44:25;;;;;;;3.15;0.73;;;9.10;99.90;;;;;;5040947;28;20021;-87
2024/01/03 06:46:51;;;;;;;0.85;0.60;;;9.10;99.90;;;;;;5053612;28;20017;-89
2024/01/03 06:49:17;;;;;;;1.13;1.02;;;9.10;99.90;;;;;;5040391;28;20117;-89
2024/01/03 06:51:44;;;;;;;0.50;0.50;;;9.10;99.90;;;;;;5040129;28;20392;-88
2024/01/03 06:54:09;;;;;;;5.07;0.80;;;9.10;99.90;;;;;;5036404;28;20112;-88
2024/01/03 06:56:35;;;;;;;1.52;0.77;;;9.10;99.90;;;;;;5041913;28;20670;-89
2024/01/03 06:59:01;;;;;;;1.40;0.60;;;9.10;99.90;;;;;;5043900;28;20116;-88
2024/01/03 07:01:26;;;;;;;0.80;0.70;;;9.10;99.90;;;;;;5039226;28;20032;-89
2024/01/03 07:03:52;;;;;;;2.08;0.70;;;9.10;99.90;;;;;;5042370;28;20051;-88
2024/01/03 07:06:17;;;;;;;0.60;0.60;;;9.10;99.90;;;;;;5046105;28;20021;-89
2024/01/03 07:08:43;;;;;;;2.60;0.70;;;9.10;99.90;;;;;;5036759;28;20537;-88
2024/01/03 07:11:09;;;;;;;0.75;0.73;;;9.10;99.90;;;;;;5043260;28;20036;-88
2024/01/03 07:13:35;;;;;;;1.10;0.85;;;9.10;99.90;;;;;;5037963;28;20304;-90
2024/01/03 07:16:00;;;;;;;0.50;0.50;;;9.10;99.90;;;;;;5043275;28;20499;-88
2024/01/03 07:18:26;;;;;;;1.30;0.60;;;9.10;99.90;;;;;;5041668;28;20487;-89
2024/01/03 07:20:52;;;;;;;0.57;0.57;;;9.10;99.90;;;;;;5036149;28;20624;-89
2024/01/03 07:23:17;;;;;;;3.95;0.70;;;9.10;99.90;;;;;;5039799;28;20018;-88
2024/01/03 07:25:43;;;;;;;0.50;0.50;;;9.10;99.90;;;;;;5041391;28;20055;-88
2024/01/03 07:28:08;;;;;;;0.70;0.68;;;9.10;99.90;;;;;;5044137;28;20025;-88
2024/01/03 07:30:35;;;;;;;1.20;0.50;;;9.10;99.90;;;;;;5041843;28;20067;-89
2024/01/03 07:33:00;;;;;;;0.60;0.60;;;9.10;99.90;;;;;;5033340;28;20079;-89
2024/01/03 07:35:26;;;;;;;1.50;0.40;;;9.10;99.90;;;;;;5039903;28;20030;-88
2024/01/03 07:37:52;;;;;;;0.63;0.63;;;9.10;99.90;;;;;;5031937;28;20037;-88
2024/01/03 07:40:17;;;;;;;0.95;0.90;;;9.10;99.90;;;;;;5041309;28;20029;-88
2024/01/03 07:42:43;;;;;;;2.22;0.82;;;9.10;99.90;;;;;;5037557;28;20112;-88
2024/01/03 07:45:09;;;;;;;1.27;0.60;;;9.10;99.90;;;;;;5038910;28;20063;-88
2024/01/03 07:47:34;;;;;;;0.40;0.40;;;9.10;99.90;;;;;;5033498;28;20032;-88
2024/01/03 07:50:00;;;;;;;0.70;0.63;;;9.10;99.90;;;;;;5037851;28;20021;-88
2024/01/03 07:52:26;;;;;;;2.08;0.60;;;9.10;99.90;;;;;;5041392;28;20114;-88
2024/01/03 07:54:52;;;;;;;2.53;0.70;;;9.10;99.90;;;;;;5036576;28;20025;-89
2024/01/03 07:57:18;;;;;;;0.63;0.50;;;9.10;99.90;;;;;;5041234;28;20077;-88
2024/01/03 07:59:45;;;;;;;0.88;0.68;;;9.10;99.90;;;;;;5038979;28;20013;-88
2024/01/03 08:02:11;;;;;;;3.17;0.80;;;9.10;99.90;;;;;;5039856;28;20025;-88
2024/01/03 08:04:38;;;;;;;1.85;0.70;;;9.10;99.90;;;;;;5045130;28;20279;-90
2024/01/03 08:07:04;;;;;;;1.45;0.90;;;9.10;99.90;;;;;;5036944;28;20021;-88
2024/01/03 08:09:29;;;;;;;2.65;0.90;;;9.20;99.90;;;;;;5034992;28;20048;-88
2024/01/03 08:11:55;;;;;;;2.40;1.30;;;9.20;99.90;;;;;;5053281;28;20391;-88
2024/01/03 08:14:21;;;;;;;0.60;0.60;;;9.20;99.90;;;;;;5039249;28;20440;-88
2024/01/03 08:16:46;;;;;;;0.65;0.65;;;9.20;99.90;;;;;;5039618;28;20013;-90
2024/01/03 08:19:12;;;;;;;2.40;0.70;;;9.20;99.90;;;;;;5045726;28;20096;-88
2024/01/03 08:21:37;;;;;;;2.33;1.05;;;9.20;99.90;;;;;;5041485;28;20029;-88
2024/01/03 08:24:03;;;;;;;3.15;0.70;;;9.20;99.90;;;;;;5040693;28;20017;-88
2024/01/03 08:26:29;;;;;;;0.88;0.65;;;9.20;99.90;;;;;;5044527;28;20032;-88
2024/01/03 08:28:54;;;;;;;1.75;0.75;;;9.20;99.90;;;;;;5036841;28;20067;-88
2024/01/03 08:31:20;;;;;;;3.58;0.90;;;9.30;99.90;;;;;;5040240;28;20025;-89
2024/01/03 08:33:46;;;;;;;0.98;0.65;;;9.30;99.90;;;;;;5039266;28;20021;-86
2024/01/03 08:36:13;;;;;;;0.68;0.52;;;9.40;99.90;;;;;;5046223;28;20025;-89
2024/01/03 08:38:39;;;;;;;2.63;0.80;;;9.40;99.90;;;;;;5039867;28;20024;-89
2024/01/03 08:41:18;;;;;;;3.03;0.80;;;9.40;99.90;;;;;;5039023;28;20028;-87
2024/01/03 08:43:44;;;;;;;0.95;0.70;;;9.50;99.90;;;;;;5057397;28;20487;-88
2024/01/03 08:46:10;;;;;;;1.40;0.95;;;9.40;99.90;;;;;;5040944;28;20029;-88
2024/01/03 08:48:39;;;;;;;2.97;1.15;;;9.40;99.90;;;;;;5044129;28;20025;-88
2024/01/03 08:51:10;;;;;;;3.80;0.90;;;9.40;99.90;;;;;;5045197;28;20084;-89
2024/01/03 08:53:35;;;;;;;2.30;0.77;;;9.40;99.90;;;;;;5048323;28;20029;-86
2024/01/03 08:56:04;;;;;;;2.83;1.08;;;9.50;99.90;;;;;;5040722;28;20116;-89
2024/01/03 08:58:30;;;;;;;1.95;0.95;;;9.50;99.90;;;;;;5048156;28;20518;-89
2024/01/03 09:00:56;;;;;;;4.47;1.38;;;9.50;99.90;;;;;;5053534;28;20021;-88
2024/01/03 09:03:21;;;;;;;4.25;0.98;;;9.60;99.90;;;;;;5051648;28;20032;-89
2024/01/03 09:05:47;;;;;;;2.72;0.90;;;9.60;99.90;;;;;;5039649;28;20025;-90
2024/01/03 09:08:12;;;;;;;2.40;0.93;;;9.60;99.90;;;;;;5054042;28;20029;-88
2024/01/03 09:10:38;;;;;;;1.90;0.95;;;9.60;99.90;;;;;;5043554;28;20044;-88
2024/01/03 09:13:03;;;;;;;4.20;0.90;;;9.60;99.90;;;;;;5051025;28;20021;-88
2024/01/03 09:15:29;;;;;;;1.25;0.80;;;9.50;99.90;;;;;;5039584;28;20490;-88
2024/01/03 09:17:54;;;;;;;1.20;0.82;;;9.50;99.90;;;;;;5052762;28;20029;-87
2024/01/03 09:20:20;;;;;;;1.60;0.80;;;9.50;99.90;;;;;;5036118;28;20033;-88
2024/01/03 09:22:45;;;;;;;1.60;0.60;;;9.50;99.90;;;;;;5048138;28;20104;-89
2024/01/03 09:25:11;;;;;;;3.70;0.80;;;9.50;99.90;;;;;;5046651;28;20071;-88
2024/01/03 09:27:36;;;;;;;2.90;0.77;;;9.50;99.90;;;;;;5039002;28;20018;-89
2024/01/03 09:30:02;;;;;;;0.77;0.77;;;9.50;99.90;;;;;;5040656;28;20474;-87
2024/01/03 09:32:28;;;;;;;4.60;0.80;;;9.50;99.90;;;;;;5045526;28;20017;-87
2024/01/03 09:34:53;;;;;;;2.78;1.00;;;9.40;99.90;;;;;;5041177;28;20033;-88
2024/01/03 09:37:19;;;;;;;3.47;0.70;;;9.40;99.90;;;;;;5039014;28;20026;-89
2024/01/03 09:39:44;;;;;;;1.17;0.70;;;9.40;99.90;;;;;;5046146;28;20589;-88
2024/01/03 09:42:10;;;;;;;2.47;0.50;;;9.40;99.90;;;;;;5046540;28;20494;-90
2024/01/03 09:44:37;;;;;;;7.70;1.25;;;9.40;99.90;;;;;;5043314;28;20025;-85
2024/01/03 09:47:03;;;;;;;3.72;0.98;;;11.20;99.90;;;;;;5035741;28;20041;-88
2024/01/03 09:49:29;;;;;;;4.60;0.80;;;12.30;99.90;;;;;;5033351;28;20107;-83
2024/01/03 09:51:55;;;;;;;10.25;1.13;;;12.90;99.90;;;;;;5033605;28;20486;-86
2024/01/03 09:54:21;;;;;;;3.03;1.00;;;13.20;99.90;;;;;;5039611;28;20025;-85
2024/01/03 09:56:51;;;;;;;8.95;1.48;;;13.30;99.90;;;;;;5042277;28;20070;-87
2024/01/03 09:59:17;;;;;;;4.20;1.00;;;13.30;99.90;;;;;;5044617;28;20025;-85
2024/01/03 10:01:56;;;;;;;3.13;1.00;;;13.40;99.90;;;;;;5037054;28;20024;-84
2024/01/03 10:04:22;;;;;;;2.63;1.23;;;13.40;99.90;;;;;;5040999;28;20033;-88
2024/01/03 10:06:55;;;;;;;3.85;1.20;;;13.40;99.90;;;;;;5046235;28;20021;-88
2024/01/03 10:09:24;;;;;;;3.22;1.25;;;13.50;99.90;;;;;;5039483;28;20140;-87
2024/01/03 10:11:52;;;;;;;4.83;1.00;;;13.50;99.90;;;;;;5039455;28;20025;-88
2024/01/03 10:14:20;;;;;;;3.67;0.80;;;13.50;99.90;;;;;;5040837;28;20029;-87
2024/01/03 10:16:46;;;;;;;1.40;0.90;;;13.50;99.90;;;;;;5038959;28;20043;-86
2024/01/03 10:19:17;;;;;;;3.20;1.00;;;13.50;99.90;;;;;;5040133;28;20051;-88
2024/01/03 10:21:53;;;;;;;1.05;1.00;;;13.40;99.90;;;;;;5041544;28;20096;-89
2024/01/03 10:24:23;;;;;;;3.13;0.98;;;13.50;99.90;;;;;;5046982;28;20071;-86
2024/01/03 10:26:49;;;;;;;1.38;1.05;;;13.40;99.90;;;;;;5037418;28;20095;-88
2024/01/03 10:29:17;;;;;;;1.98;0.90;;;13.50;99.90;;;;;;5046106;28;20029;-88
2024/01/03 10:31:44;;;;;;;2.08;0.90;;;13.40;99.90;;;;;;5043087;28;20510;-86
2024/01/03 10:34:15;;;;;;;3.63;0.90;;;13.40;99.90;;;;;;5051724;28;20064;-90
2024/01/03 10:36:42;;;;;;;2.10;0.75;;;13.40;99.90;;;;;;5044606;28;20021;-88
2024/01/03 10:39:14;;;;;;;9.70;0.93;;;13.40;99.90;;;;;;5042861;28;20021;-87
2024/01/03 10:41:45;;;;;;;4.78;0.80;;;13.40;99.90;;;;;;5040667;28;20021;-88
2024/01/03 10:44:13;;;;;;;2.20;0.82;;;13.50;99.90;;;;;;5053959;28;20025;-89
2024/01/03 10:46:40;;;;;;;4.35;0.90;;;13.50;99.90;;;;;;5044197;28;20021;-88
2024/01/03 10:49:07;;;;;;;3.90;0.90;;;13.50;99.90;;;;;;5037577;28;20028;-88
2024/01/03 10:51:40;;;;;;;5.82;1.13;;;13.50;99.90;;;;;;5038857;28;20017;-89
2024/01/03 10:54:10;;;;;;;2.08;0.98;;;13.40;99.90;;;;;;5044848;28;20040;-88
2024/01/03 10:56:36;;;;;;;4.18;1.33;;;13.50;99.90;;;;;;5046387;28;20039;-88
2024/01/03 10:59:06;;;;;;;3.13;0.93;;;13.50;99.90;;;;;;5037117;28;20040;-88
2024/01/03 11:01:53;;;;;;;0.50;0.50;;;13.50;99.90;;;;;;5033382;28;20087;-87
2024/01/03 11:04:30;;;;;;;3.83;1.02;;;13.50;99.90;;;;;;5046237;28;20029;-87
2024/01/03 11:07:13;;;;;;;5.78;1.17;;;13.40;99.90;;;;;;5051378;28;20092;-89
2024/01/03 11:09:39;;;;;;;1.20;0.80;;;13.30;99.90;;;;;;5046779;28;20013;-86
2024/01/03 11:12:09;;;;;;;8.85;1.00;;;13.40;99.90;;;;;;5038607;28;20033;-88
2024/01/03 11:14:36;;;;;;;4.28;1.10;;;13.40;99.90;;;;;;5043303;28;20022;-88
2024/01/03 11:17:02;;;;;;;15.05;1.88;;;13.40;99.90;;;;;;5037635;28;20025;-86
2024/01/03 11:19:29;;;;;;;7.65;1.15;;;13.40;99.90;;;;;;5047461;28;20017;-88
2024/01/03 11:21:55;;;;;;;1.95;0.95;;;13.50;99.90;;;;;;5039518;28;20491;-86
2024/01/03 11:24:21;;;;;;;10.20;1.83;;;13.50;99.90;;;;;;5043145;28;20021;-86
2024/01/03 11:27:00;;;;;;;7.15;1.35;;;13.50;99.90;;;;;;5036800;28;20091;-87
2024/01/03 11:29:39;;;;;;;9.75;0.98;;;13.50;99.90;;;;;;5038596;28;20017;-88
2024/01/03 11:32:05;;;;;;;8.55;0.98;;;13.60;99.90;;;;;;5034415;28;20029;-87
2024/01/03 11:34:46;;;;;;;9.85;1.00;;;13.50;99.90;;;;;;5035884;28;20030;-85
2024/01/03 11:37:38;;;;;;;4.13;0.80;;;13.50;99.90;;;;;;5038327;28;20108;-88
2024/01/03 11:40:06;;;;;;;5.07;0.77;;;13.50;99.90;;;;;;5051826;28;20037;-86
2024/01/03 11:42:34;;;;;;;2.03;1.08;;;13.50;99.90;;;;;;5034374;28;20168;-85
2024/01/03 11:45:00;;;;;;;5.63;0.60;;;13.60;99.90;;;;;;5044710;28;20032;-85
2024/01/03 11:47:26;;;;;;;1.85;0.93;;;13.50;99.90;;;;;;5044044;28;20021;-87
2024/01/03 11:50:03;;;;;;;4.72;0.77;;;13.50;99.90;;;;;;5043770;28;20047;-85
2024/01/03 11:52:31;;;;;;;3.78;0.82;;;13.40;99.90;;;;;;5033613;28;20017;-86
2024/01/03 11:55:03;;;;;;;5.50;0.80;;;13.50;99.90;;;;;;5035306;28;20514;-87
2024/01/03 11:57:30;;;;;;;6.93;1.20;;;13.50;99.90;;;;;;5036014;28;20040;-84
2024/01/03 12:00:03;;;;;;;3.42;1.00;;;13.60;99.90;;;;;;5033895;28;20403;-86
2024/01/03 12:02:29;;;;;;;4.45;0.68;;;13.50;99.90;;;;;;5041928;28;20017;-88
2024/01/03 12:05:00;;;;;;;3.70;0.70;;;13.50;99.90;;;;;;5033601;28;20029;-84
2024/01/03 12:07:28;;;;;;;3.38;0.93;;;13.50;99.90;;;;;;5029212;28;20013;-86
2024/01/03 12:09:55;;;;;;;1.65;0.60;;;13.50;99.90;;;;;;5036391;28;20029;-85
2024/01/03 12:12:21;;;;;;;4.63;0.68;;;13.50;99.90;;;;;;5031514;28;20029;-86
2024/01/03 12:14:55;;;;;;;1.85;0.70;;;13.50;99.90;;;;;;5035727;28;20373;-86
2024/01/03 12:17:29;;;;;;;2.92;0.77;;;13.50;99.90;;;;;;5037313;28;20097;-86
2024/01/03 12:20:09;;;;;;;3.30;0.70;;;13.50;99.90;;;;;;5030889;28;20029;-87
2024/01/03 12:22:36;;;;;;;6.57;0.90;;;13.50;99.90;;;;;;5027963;28;20467;-85
2024/01/03 12:25:02;;;;;;;2.38;0.77;;;13.50;99.90;;;;;;5029600;28;20038;-85
2024/01/03 12:27:28;;;;;;;1.73;0.90;;;13.60;99.90;;;;;;5034776;28;20032;-87
2024/01/03 12:30:12;;;;;;;6.80;1.33;;;13.60;99.90;;;;;;5032337;28;20106;-85
2024/01/03 12:32:37;;;;;;;3.50;1.30;;;13.50;99.90;;;;;;5035004;28;20026;-84
2024/01/03 12:35:04;;;;;;;2.67;1.25;;;13.60;99.90;;;;;;5030551;28;20514;-86
2024/01/03 12:37:29;;;;;;;1.80;0.75;;;13.50;99.90;;;;;;5031937;28;20468;-85
2024/01/03 12:39:55;;;;;;;0.85;0.75;;;13.50;99.90;;;;;;5031002;28;20098;-87
2024/01/03 12:42:21;;;;;;;2.00;0.80;;;13.50;99.90;;;;;;5028230;28;20021;-87
2024/01/03 12:44:46;;;;;;;3.55;0.90;;;13.50;99.90;;;;;;5032451;28;20063;-87
2024/01/03 12:47:13;;;;;;;2.95;0.80;;;13.50;99.90;;;;;;5030031;28;20036;-84
2024/01/03 12:49:39;;;;;;;1.55;0.80;;;13.50;99.90;;;;;;5033814;28;20021;-87
2024/01/03 12:52:06;;;;;;;1.73;0.90;;;13.50;99.90;;;;;;5034113;28;20435;-87
2024/01/03 12:54:33;;;;;;;2.50;0.70;;;13.50;99.90;;;;;;5030775;28;20029;-85